sensor_id;sensor_type;location;lat;lon;timestamp;P1;durP1;ratioP1;P2;durP2;ratioP2
15748;SDS011;7976;52.526;13.326;2022-12-07T00:01:41;20.30;;;6.55;;
15748;SDS011;7976;52.526;13.326;2022-12-07T00:04:11;16.48;;;6.22;;
15748;SDS011;7976;52.526;13.326;2022-12-07T00:06:42;18.88;;;6.20;;
15748;SDS011;7976;52.526;13.326;2022-12-07T00:09:12;19.13;;;6.68;;
15748;SDS011;7976;52.526;13.326;2022-12-07T00:11:41;17.55;;;6.20;;
15748;SDS011;7976;52.526;13.326;2022-12-07T00:14:10;18.77;;;6.65;;
15748;SDS011;7976;52.526;13.326;2022-12-07T00:16:40;16.88;;;6.57;;
15748;SDS011;7976;52.526;13.326;2022-12-07T00:19:08;16.40;;;5.32;;
15748;SDS011;7976;52.526;13.326;2022-12-07T00:21:37;17.23;;;6.57;;
15748;SDS011;7976;52.526;13.326;2022-12-07T00:24:06;16.52;;;5.65;;
15748;SDS011;7976;52.526;13.326;2022-12-07T00:26:34;14.35;;;5.50;;
15748;SDS011;7976;52.526;13.326;2022-12-07T00:29:05;16.55;;;6.82;;
15748;SDS011;7976;52.526;13.326;2022-12-07T00:31:41;16.23;;;6.25;;
15748;SDS011;7976;52.526;13.326;2022-12-07T00:34:11;16.73;;;6.22;;
15748;SDS011;7976;52.526;13.326;2022-12-07T00:36:41;17.52;;;5.90;;
15748;SDS011;7976;52.526;13.326;2022-12-07T00:39:09;16.42;;;5.88;;
15748;SDS011;7976;52.526;13.326;2022-12-07T00:41:37;15.30;;;5.82;;
15748;SDS011;7976;52.526;13.326;2022-12-07T00:44:04;14.30;;;5.82;;
15748;SDS011;7976;52.526;13.326;2022-12-07T00:46:30;14.40;;;5.45;;
15748;SDS011;7976;52.526;13.326;2022-12-07T00:48:57;15.00;;;5.35;;
15748;SDS011;7976;52.526;13.326;2022-12-07T00:51:24;14.10;;;5.90;;
15748;SDS011;7976;52.526;13.326;2022-12-07T00:53:52;20.45;;;6.70;;
15748;SDS011;7976;52.526;13.326;2022-12-07T00:56:24;18.65;;;6.15;;
15748;SDS011;7976;52.526;13.326;2022-12-07T00:58:53;17.10;;;5.97;;
15748;SDS011;7976;52.526;13.326;2022-12-07T01:01:22;16.42;;;6.43;;
15748;SDS011;7976;52.526;13.326;2022-12-07T01:03:53;15.68;;;6.00;;
15748;SDS011;7976;52.526;13.326;2022-12-07T01:06:21;16.80;;;6.13;;
15748;SDS011;7976;52.526;13.326;2022-12-07T01:08:50;21.17;;;6.90;;
15748;SDS011;7976;52.526;13.326;2022-12-07T01:11:18;14.15;;;5.53;;
15748;SDS011;7976;52.526;13.326;2022-12-07T01:13:53;14.13;;;5.05;;
15748;SDS011;7976;52.526;13.326;2022-12-07T01:16:23;14.83;;;5.40;;
15748;SDS011;7976;52.526;13.326;2022-12-07T01:18:52;15.30;;;5.53;;
15748;SDS011;7976;52.526;13.326;2022-12-07T01:21:22;14.60;;;5.75;;
15748;SDS011;7976;52.526;13.326;2022-12-07T01:23:51;12.57;;;4.35;;
15748;SDS011;7976;52.526;13.326;2022-12-07T01:26:20;14.80;;;4.50;;
15748;SDS011;7976;52.526;13.326;2022-12-07T01:28:53;13.85;;;4.47;;
15748;SDS011;7976;52.526;13.326;2022-12-07T01:31:21;12.37;;;5.00;;
15748;SDS011;7976;52.526;13.326;2022-12-07T01:33:51;12.82;;;4.60;;
15748;SDS011;7976;52.526;13.326;2022-12-07T01:36:21;12.68;;;4.72;;
15748;SDS011;7976;52.526;13.326;2022-12-07T01:38:54;13.95;;;4.68;;
15748;SDS011;7976;52.526;13.326;2022-12-07T01:41:26;12.80;;;4.63;;
15748;SDS011;7976;52.526;13.326;2022-12-07T01:44:08;14.38;;;5.00;;
15748;SDS011;7976;52.526;13.326;2022-12-07T01:46:51;11.80;;;4.03;;
15748;SDS011;7976;52.526;13.326;2022-12-07T01:49:22;10.35;;;3.70;;
15748;SDS011;7976;52.526;13.326;2022-12-07T01:51:59;10.02;;;3.60;;
15748;SDS011;7976;52.526;13.326;2022-12-07T01:54:39;11.40;;;3.85;;
15748;SDS011;7976;52.526;13.326;2022-12-07T01:57:10;10.98;;;3.75;;
15748;SDS011;7976;52.526;13.326;2022-12-07T01:59:42;10.68;;;3.58;;
15748;SDS011;7976;52.526;13.326;2022-12-07T02:02:12;11.60;;;4.05;;
15748;SDS011;7976;52.526;13.326;2022-12-07T02:04:46;11.15;;;3.88;;
15748;SDS011;7976;52.526;13.326;2022-12-07T02:07:13;10.10;;;3.58;;
15748;SDS011;7976;52.526;13.326;2022-12-07T02:09:43;11.60;;;4.18;;
15748;SDS011;7976;52.526;13.326;2022-12-07T02:12:11;10.35;;;3.80;;
15748;SDS011;7976;52.526;13.326;2022-12-07T02:14:38;14.30;;;5.07;;
15748;SDS011;7976;52.526;13.326;2022-12-07T02:17:07;12.27;;;4.30;;
15748;SDS011;7976;52.526;13.326;2022-12-07T02:20:02;12.05;;;4.18;;
15748;SDS011;7976;52.526;13.326;2022-12-07T02:22:51;10.80;;;4.13;;
15748;SDS011;7976;52.526;13.326;2022-12-07T02:25:53;10.60;;;3.40;;
15748;SDS011;7976;52.526;13.326;2022-12-07T02:28:51;11.48;;;3.60;;
15748;SDS011;7976;52.526;13.326;2022-12-07T02:31:50;10.00;;;3.78;;
15748;SDS011;7976;52.526;13.326;2022-12-07T02:34:34;11.45;;;3.70;;
15748;SDS011;7976;52.526;13.326;2022-12-07T02:37:19;12.18;;;4.75;;
15748;SDS011;7976;52.526;13.326;2022-12-07T02:40:01;10.68;;;3.97;;
15748;SDS011;7976;52.526;13.326;2022-12-07T02:42:38;13.07;;;4.18;;
15748;SDS011;7976;52.526;13.326;2022-12-07T02:45:13;13.35;;;3.90;;
15748;SDS011;7976;52.526;13.326;2022-12-07T02:47:46;13.60;;;4.93;;
15748;SDS011;7976;52.526;13.326;2022-12-07T02:50:19;10.73;;;4.22;;
15748;SDS011;7976;52.526;13.326;2022-12-07T02:52:47;11.95;;;4.55;;
15748;SDS011;7976;52.526;13.326;2022-12-07T02:55:15;14.73;;;5.03;;
15748;SDS011;7976;52.526;13.326;2022-12-07T02:57:53;11.93;;;4.53;;
15748;SDS011;7976;52.526;13.326;2022-12-07T03:00:42;13.00;;;4.55;;
15748;SDS011;7976;52.526;13.326;2022-12-07T03:03:25;12.27;;;4.13;;
15748;SDS011;7976;52.526;13.326;2022-12-07T03:05:58;12.45;;;4.53;;
15748;SDS011;7976;52.526;13.326;2022-12-07T03:08:38;14.57;;;5.43;;
15748;SDS011;7976;52.526;13.326;2022-12-07T03:11:21;13.80;;;5.07;;
15748;SDS011;7976;52.526;13.326;2022-12-07T03:13:59;12.75;;;4.90;;
15748;SDS011;7976;52.526;13.326;2022-12-07T03:16:35;15.93;;;5.10;;
15748;SDS011;7976;52.526;13.326;2022-12-07T03:19:10;14.93;;;5.25;;
15748;SDS011;7976;52.526;13.326;2022-12-07T03:21:43;14.52;;;5.28;;
15748;SDS011;7976;52.526;13.326;2022-12-07T03:24:17;14.10;;;5.38;;
15748;SDS011;7976;52.526;13.326;2022-12-07T03:26:47;13.95;;;5.05;;
15748;SDS011;7976;52.526;13.326;2022-12-07T03:29:22;13.73;;;5.35;;
15748;SDS011;7976;52.526;13.326;2022-12-07T03:31:58;14.25;;;4.93;;
15748;SDS011;7976;52.526;13.326;2022-12-07T03:34:32;14.63;;;5.40;;
15748;SDS011;7976;52.526;13.326;2022-12-07T03:37:07;16.02;;;5.80;;
15748;SDS011;7976;52.526;13.326;2022-12-07T03:39:44;15.73;;;5.72;;
15748;SDS011;7976;52.526;13.326;2022-12-07T03:42:20;17.15;;;6.32;;
15748;SDS011;7976;52.526;13.326;2022-12-07T03:44:47;16.17;;;5.97;;
15748;SDS011;7976;52.526;13.326;2022-12-07T03:47:18;15.48;;;5.72;;
15748;SDS011;7976;52.526;13.326;2022-12-07T03:49:56;18.45;;;6.65;;
15748;SDS011;7976;52.526;13.326;2022-12-07T03:52:30;18.08;;;6.18;;
15748;SDS011;7976;52.526;13.326;2022-12-07T03:55:05;15.40;;;5.72;;
15748;SDS011;7976;52.526;13.326;2022-12-07T03:57:37;16.60;;;6.53;;
15748;SDS011;7976;52.526;13.326;2022-12-07T04:00:08;19.52;;;5.93;;
15748;SDS011;7976;52.526;13.326;2022-12-07T04:02:40;21.20;;;7.55;;
15748;SDS011;7976;52.526;13.326;2022-12-07T04:05:08;20.08;;;7.10;;
15748;SDS011;7976;52.526;13.326;2022-12-07T04:07:36;17.83;;;6.80;;
15748;SDS011;7976;52.526;13.326;2022-12-07T04:10:04;17.90;;;6.80;;
15748;SDS011;7976;52.526;13.326;2022-12-07T04:12:32;22.90;;;7.32;;
15748;SDS011;7976;52.526;13.326;2022-12-07T04:14:59;18.30;;;7.03;;
15748;SDS011;7976;52.526;13.326;2022-12-07T04:17:25;18.42;;;6.35;;
15748;SDS011;7976;52.526;13.326;2022-12-07T04:19:53;21.58;;;7.97;;
15748;SDS011;7976;52.526;13.326;2022-12-07T04:22:20;21.02;;;6.93;;
15748;SDS011;7976;52.526;13.326;2022-12-07T04:24:47;20.33;;;7.35;;
15748;SDS011;7976;52.526;13.326;2022-12-07T04:27:14;18.17;;;7.35;;
15748;SDS011;7976;52.526;13.326;2022-12-07T04:29:41;22.63;;;8.40;;
15748;SDS011;7976;52.526;13.326;2022-12-07T04:32:07;19.47;;;7.97;;
15748;SDS011;7976;52.526;13.326;2022-12-07T04:34:34;21.10;;;8.27;;
15748;SDS011;7976;52.526;13.326;2022-12-07T04:37:03;21.35;;;7.28;;
15748;SDS011;7976;52.526;13.326;2022-12-07T04:39:30;23.45;;;7.70;;
15748;SDS011;7976;52.526;13.326;2022-12-07T04:41:59;23.70;;;8.57;;
15748;SDS011;7976;52.526;13.326;2022-12-07T04:44:27;22.80;;;8.77;;
15748;SDS011;7976;52.526;13.326;2022-12-07T04:46:55;24.67;;;8.05;;
15748;SDS011;7976;52.526;13.326;2022-12-07T04:49:23;20.73;;;7.85;;
15748;SDS011;7976;52.526;13.326;2022-12-07T04:51:50;21.98;;;8.63;;
15748;SDS011;7976;52.526;13.326;2022-12-07T04:54:19;20.93;;;8.40;;
15748;SDS011;7976;52.526;13.326;2022-12-07T04:56:46;21.30;;;8.07;;
15748;SDS011;7976;52.526;13.326;2022-12-07T04:59:13;22.08;;;8.13;;
15748;SDS011;7976;52.526;13.326;2022-12-07T05:01:42;22.58;;;8.63;;
15748;SDS011;7976;52.526;13.326;2022-12-07T05:04:09;25.25;;;9.90;;
15748;SDS011;7976;52.526;13.326;2022-12-07T05:06:36;24.42;;;9.20;;
15748;SDS011;7976;52.526;13.326;2022-12-07T05:09:03;27.17;;;10.15;;
15748;SDS011;7976;52.526;13.326;2022-12-07T05:11:32;22.65;;;8.82;;
15748;SDS011;7976;52.526;13.326;2022-12-07T05:14:05;24.65;;;9.40;;
15748;SDS011;7976;52.526;13.326;2022-12-07T05:16:39;27.85;;;10.43;;
15748;SDS011;7976;52.526;13.326;2022-12-07T05:19:07;26.73;;;10.15;;
15748;SDS011;7976;52.526;13.326;2022-12-07T05:21:35;27.27;;;10.48;;
15748;SDS011;7976;52.526;13.326;2022-12-07T05:24:03;32.05;;;11.55;;
15748;SDS011;7976;52.526;13.326;2022-12-07T05:26:32;31.30;;;12.32;;
15748;SDS011;7976;52.526;13.326;2022-12-07T05:29:00;28.73;;;9.88;;
15748;SDS011;7976;52.526;13.326;2022-12-07T05:31:27;29.08;;;11.45;;
15748;SDS011;7976;52.526;13.326;2022-12-07T05:33:54;31.25;;;11.35;;
15748;SDS011;7976;52.526;13.326;2022-12-07T05:36:21;27.60;;;11.27;;
15748;SDS011;7976;52.526;13.326;2022-12-07T05:38:48;27.15;;;10.80;;
15748;SDS011;7976;52.526;13.326;2022-12-07T05:41:16;34.63;;;11.98;;
15748;SDS011;7976;52.526;13.326;2022-12-07T05:44:04;29.75;;;11.60;;
15748;SDS011;7976;52.526;13.326;2022-12-07T05:46:31;30.65;;;11.05;;
15748;SDS011;7976;52.526;13.326;2022-12-07T05:48:59;30.45;;;11.20;;
15748;SDS011;7976;52.526;13.326;2022-12-07T05:51:26;27.80;;;10.82;;
15748;SDS011;7976;52.526;13.326;2022-12-07T05:53:53;31.60;;;10.95;;
15748;SDS011;7976;52.526;13.326;2022-12-07T05:56:19;30.48;;;11.90;;
15748;SDS011;7976;52.526;13.326;2022-12-07T05:58:47;28.02;;;10.82;;
15748;SDS011;7976;52.526;13.326;2022-12-07T06:01:33;35.72;;;12.80;;
15748;SDS011;7976;52.526;13.326;2022-12-07T06:04:00;30.05;;;10.85;;
15748;SDS011;7976;52.526;13.326;2022-12-07T06:06:27;28.75;;;11.13;;
15748;SDS011;7976;52.526;13.326;2022-12-07T06:08:53;28.13;;;11.00;;
15748;SDS011;7976;52.526;13.326;2022-12-07T06:11:20;29.35;;;11.27;;
15748;SDS011;7976;52.526;13.326;2022-12-07T06:14:05;30.80;;;11.38;;
15748;SDS011;7976;52.526;13.326;2022-12-07T06:16:33;33.75;;;12.30;;
15748;SDS011;7976;52.526;13.326;2022-12-07T06:19:00;29.88;;;11.13;;
15748;SDS011;7976;52.526;13.326;2022-12-07T06:21:27;29.58;;;11.30;;
15748;SDS011;7976;52.526;13.326;2022-12-07T06:23:54;30.35;;;10.48;;
15748;SDS011;7976;52.526;13.326;2022-12-07T06:26:21;28.10;;;10.63;;
15748;SDS011;7976;52.526;13.326;2022-12-07T06:28:48;30.40;;;11.32;;
15748;SDS011;7976;52.526;13.326;2022-12-07T06:31:15;27.55;;;10.85;;
15748;SDS011;7976;52.526;13.326;2022-12-07T06:33:43;26.42;;;9.93;;
15748;SDS011;7976;52.526;13.326;2022-12-07T06:36:10;27.13;;;9.93;;
15748;SDS011;7976;52.526;13.326;2022-12-07T06:38:38;26.55;;;10.82;;
15748;SDS011;7976;52.526;13.326;2022-12-07T06:41:04;29.20;;;11.93;;
15748;SDS011;7976;52.526;13.326;2022-12-07T06:43:31;29.00;;;11.32;;
15748;SDS011;7976;52.526;13.326;2022-12-07T06:45:58;31.17;;;11.80;;
15748;SDS011;7976;52.526;13.326;2022-12-07T06:48:25;29.10;;;10.88;;
15748;SDS011;7976;52.526;13.326;2022-12-07T06:50:53;32.80;;;12.93;;
15748;SDS011;7976;52.526;13.326;2022-12-07T06:53:20;34.97;;;12.13;;
15748;SDS011;7976;52.526;13.326;2022-12-07T06:55:47;31.08;;;11.82;;
15748;SDS011;7976;52.526;13.326;2022-12-07T06:58:15;32.92;;;12.93;;
15748;SDS011;7976;52.526;13.326;2022-12-07T07:00:42;28.88;;;12.55;;
15748;SDS011;7976;52.526;13.326;2022-12-07T07:03:09;36.88;;;13.20;;
15748;SDS011;7976;52.526;13.326;2022-12-07T07:05:36;33.00;;;13.38;;
15748;SDS011;7976;52.526;13.326;2022-12-07T07:08:05;35.63;;;13.95;;
15748;SDS011;7976;52.526;13.326;2022-12-07T07:10:32;31.38;;;12.60;;
15748;SDS011;7976;52.526;13.326;2022-12-07T07:12:58;31.92;;;13.20;;
15748;SDS011;7976;52.526;13.326;2022-12-07T07:15:26;31.27;;;12.98;;
15748;SDS011;7976;52.526;13.326;2022-12-07T07:17:52;32.67;;;12.90;;
15748;SDS011;7976;52.526;13.326;2022-12-07T07:20:19;32.47;;;12.75;;
15748;SDS011;7976;52.526;13.326;2022-12-07T07:22:47;30.42;;;12.05;;
15748;SDS011;7976;52.526;13.326;2022-12-07T07:25:15;33.88;;;12.77;;
15748;SDS011;7976;52.526;13.326;2022-12-07T07:27:43;31.73;;;12.65;;
15748;SDS011;7976;52.526;13.326;2022-12-07T07:30:10;34.00;;;12.60;;
15748;SDS011;7976;52.526;13.326;2022-12-07T07:32:38;30.25;;;12.07;;
15748;SDS011;7976;52.526;13.326;2022-12-07T07:35:05;29.92;;;11.65;;
15748;SDS011;7976;52.526;13.326;2022-12-07T07:37:33;28.08;;;11.63;;
15748;SDS011;7976;52.526;13.326;2022-12-07T07:40:00;26.25;;;10.13;;
15748;SDS011;7976;52.526;13.326;2022-12-07T07:42:28;26.52;;;10.80;;
15748;SDS011;7976;52.526;13.326;2022-12-07T07:44:55;27.40;;;10.30;;
15748;SDS011;7976;52.526;13.326;2022-12-07T07:47:22;28.70;;;9.90;;
15748;SDS011;7976;52.526;13.326;2022-12-07T07:49:49;26.20;;;10.30;;
15748;SDS011;7976;52.526;13.326;2022-12-07T07:52:16;26.10;;;11.60;;
15748;SDS011;7976;52.526;13.326;2022-12-07T07:54:43;23.30;;;8.70;;
15748;SDS011;7976;52.526;13.326;2022-12-07T07:57:10;24.42;;;10.07;;
15748;SDS011;7976;52.526;13.326;2022-12-07T07:59:38;24.55;;;8.60;;
15748;SDS011;7976;52.526;13.326;2022-12-07T08:02:05;24.73;;;9.40;;
15748;SDS011;7976;52.526;13.326;2022-12-07T08:04:31;24.60;;;9.85;;
15748;SDS011;7976;52.526;13.326;2022-12-07T08:06:58;22.42;;;9.15;;
15748;SDS011;7976;52.526;13.326;2022-12-07T08:09:25;21.83;;;8.18;;
15748;SDS011;7976;52.526;13.326;2022-12-07T08:11:52;18.92;;;7.32;;
15748;SDS011;7976;52.526;13.326;2022-12-07T08:14:18;25.05;;;8.13;;
15748;SDS011;7976;52.526;13.326;2022-12-07T08:16:46;19.98;;;8.27;;
15748;SDS011;7976;52.526;13.326;2022-12-07T08:19:13;21.20;;;7.20;;
15748;SDS011;7976;52.526;13.326;2022-12-07T08:21:40;20.65;;;7.90;;
15748;SDS011;7976;52.526;13.326;2022-12-07T08:24:07;20.45;;;7.97;;
15748;SDS011;7976;52.526;13.326;2022-12-07T08:26:34;16.48;;;6.40;;
15748;SDS011;7976;52.526;13.326;2022-12-07T08:29:01;15.02;;;5.68;;
15748;SDS011;7976;52.526;13.326;2022-12-07T08:31:28;14.40;;;5.78;;
15748;SDS011;7976;52.526;13.326;2022-12-07T08:33:56;12.15;;;4.53;;
15748;SDS011;7976;52.526;13.326;2022-12-07T08:36:23;12.18;;;4.18;;
15748;SDS011;7976;52.526;13.326;2022-12-07T08:38:50;13.82;;;4.75;;
15748;SDS011;7976;52.526;13.326;2022-12-07T08:41:17;11.95;;;4.43;;
15748;SDS011;7976;52.526;13.326;2022-12-07T08:43:44;10.27;;;3.47;;
15748;SDS011;7976;52.526;13.326;2022-12-07T08:46:11;8.65;;;3.28;;
15748;SDS011;7976;52.526;13.326;2022-12-07T08:48:45;9.32;;;3.33;;
15748;SDS011;7976;52.526;13.326;2022-12-07T08:51:20;10.07;;;2.83;;
15748;SDS011;7976;52.526;13.326;2022-12-07T08:53:48;9.50;;;3.00;;
15748;SDS011;7976;52.526;13.326;2022-12-07T08:56:17;8.23;;;2.80;;
15748;SDS011;7976;52.526;13.326;2022-12-07T08:58:46;9.05;;;2.33;;
15748;SDS011;7976;52.526;13.326;2022-12-07T09:01:14;6.85;;;2.30;;
15748;SDS011;7976;52.526;13.326;2022-12-07T09:03:41;9.05;;;2.40;;
15748;SDS011;7976;52.526;13.326;2022-12-07T09:06:07;7.38;;;2.45;;
15748;SDS011;7976;52.526;13.326;2022-12-07T09:08:37;7.43;;;2.17;;
15748;SDS011;7976;52.526;13.326;2022-12-07T09:11:10;6.25;;;2.10;;
15748;SDS011;7976;52.526;13.326;2022-12-07T09:13:37;7.45;;;2.45;;
15748;SDS011;7976;52.526;13.326;2022-12-07T09:16:04;6.43;;;1.92;;
15748;SDS011;7976;52.526;13.326;2022-12-07T09:18:31;6.55;;;2.08;;
15748;SDS011;7976;52.526;13.326;2022-12-07T09:20:58;6.03;;;1.92;;
15748;SDS011;7976;52.526;13.326;2022-12-07T09:23:25;7.32;;;2.30;;
15748;SDS011;7976;52.526;13.326;2022-12-07T09:25:53;6.75;;;2.13;;
15748;SDS011;7976;52.526;13.326;2022-12-07T09:28:20;8.20;;;2.50;;
15748;SDS011;7976;52.526;13.326;2022-12-07T09:30:47;8.10;;;2.25;;
15748;SDS011;7976;52.526;13.326;2022-12-07T09:33:15;6.47;;;2.42;;
15748;SDS011;7976;52.526;13.326;2022-12-07T09:35:44;7.10;;;2.65;;
15748;SDS011;7976;52.526;13.326;2022-12-07T09:38:11;10.07;;;2.95;;
15748;SDS011;7976;52.526;13.326;2022-12-07T09:40:38;9.77;;;3.13;;
15748;SDS011;7976;52.526;13.326;2022-12-07T09:43:12;6.38;;;2.15;;
15748;SDS011;7976;52.526;13.326;2022-12-07T09:45:43;7.28;;;2.45;;
15748;SDS011;7976;52.526;13.326;2022-12-07T09:48:14;6.63;;;2.30;;
15748;SDS011;7976;52.526;13.326;2022-12-07T09:50:45;9.85;;;2.47;;
15748;SDS011;7976;52.526;13.326;2022-12-07T09:53:15;5.72;;;2.00;;
15748;SDS011;7976;52.526;13.326;2022-12-07T09:55:48;8.07;;;2.35;;
15748;SDS011;7976;52.526;13.326;2022-12-07T09:58:19;7.90;;;2.03;;
15748;SDS011;7976;52.526;13.326;2022-12-07T10:00:52;8.32;;;2.55;;
15748;SDS011;7976;52.526;13.326;2022-12-07T10:03:22;5.75;;;2.13;;
15748;SDS011;7976;52.526;13.326;2022-12-07T10:05:49;6.00;;;2.17;;
15748;SDS011;7976;52.526;13.326;2022-12-07T10:08:18;8.00;;;2.35;;
15748;SDS011;7976;52.526;13.326;2022-12-07T10:10:49;6.13;;;2.10;;
15748;SDS011;7976;52.526;13.326;2022-12-07T10:13:20;7.00;;;2.40;;
15748;SDS011;7976;52.526;13.326;2022-12-07T10:15:59;5.47;;;1.80;;
15748;SDS011;7976;52.526;13.326;2022-12-07T10:18:27;6.32;;;1.83;;
15748;SDS011;7976;52.526;13.326;2022-12-07T10:21:03;6.97;;;2.10;;
15748;SDS011;7976;52.526;13.326;2022-12-07T10:23:39;6.82;;;2.33;;
15748;SDS011;7976;52.526;13.326;2022-12-07T10:26:20;6.47;;;2.00;;
15748;SDS011;7976;52.526;13.326;2022-12-07T10:28:57;6.70;;;2.20;;
15748;SDS011;7976;52.526;13.326;2022-12-07T10:31:26;7.00;;;2.30;;
15748;SDS011;7976;52.526;13.326;2022-12-07T10:33:54;8.68;;;2.38;;
15748;SDS011;7976;52.526;13.326;2022-12-07T10:36:24;6.32;;;2.30;;
15748;SDS011;7976;52.526;13.326;2022-12-07T10:39:00;6.38;;;2.47;;
15748;SDS011;7976;52.526;13.326;2022-12-07T10:41:30;7.40;;;2.33;;
15748;SDS011;7976;52.526;13.326;2022-12-07T10:43:58;9.52;;;2.17;;
15748;SDS011;7976;52.526;13.326;2022-12-07T10:46:42;7.20;;;2.65;;
15748;SDS011;7976;52.526;13.326;2022-12-07T10:49:43;7.85;;;2.72;;
15748;SDS011;7976;52.526;13.326;2022-12-07T10:52:51;6.28;;;2.50;;
15748;SDS011;7976;52.526;13.326;2022-12-07T10:55:55;8.35;;;2.88;;
15748;SDS011;7976;52.526;13.326;2022-12-07T10:58:45;7.05;;;2.70;;
15748;SDS011;7976;52.526;13.326;2022-12-07T11:01:33;11.05;;;2.90;;
15748;SDS011;7976;52.526;13.326;2022-12-07T11:04:17;8.02;;;2.50;;
15748;SDS011;7976;52.526;13.326;2022-12-07T11:06:54;11.90;;;2.95;;
15748;SDS011;7976;52.526;13.326;2022-12-07T11:09:43;8.30;;;2.92;;
15748;SDS011;7976;52.526;13.326;2022-12-07T11:12:27;7.65;;;2.83;;
15748;SDS011;7976;52.526;13.326;2022-12-07T11:15:13;13.80;;;3.33;;
15748;SDS011;7976;52.526;13.326;2022-12-07T11:17:48;8.77;;;2.85;;
15748;SDS011;7976;52.526;13.326;2022-12-07T11:20:29;7.78;;;2.88;;
15748;SDS011;7976;52.526;13.326;2022-12-07T11:23:13;8.63;;;3.13;;
15748;SDS011;7976;52.526;13.326;2022-12-07T11:25:52;8.95;;;3.13;;
15748;SDS011;7976;52.526;13.326;2022-12-07T11:28:34;10.48;;;3.33;;
15748;SDS011;7976;52.526;13.326;2022-12-07T11:31:27;11.10;;;3.60;;
15748;SDS011;7976;52.526;13.326;2022-12-07T11:34:03;10.05;;;3.22;;
15748;SDS011;7976;52.526;13.326;2022-12-07T11:36:41;8.52;;;3.33;;
15748;SDS011;7976;52.526;13.326;2022-12-07T11:39:23;10.10;;;3.30;;
15748;SDS011;7976;52.526;13.326;2022-12-07T11:42:00;14.50;;;4.85;;
15748;SDS011;7976;52.526;13.326;2022-12-07T11:44:47;10.20;;;3.67;;
15748;SDS011;7976;52.526;13.326;2022-12-07T11:47:25;14.65;;;4.45;;
15748;SDS011;7976;52.526;13.326;2022-12-07T11:50:03;9.02;;;3.83;;
15748;SDS011;7976;52.526;13.326;2022-12-07T11:52:48;11.32;;;3.97;;
15748;SDS011;7976;52.526;13.326;2022-12-07T11:55:21;10.57;;;3.80;;
15748;SDS011;7976;52.526;13.326;2022-12-07T11:57:59;10.65;;;3.53;;
15748;SDS011;7976;52.526;13.326;2022-12-07T12:00:31;8.25;;;3.15;;
15748;SDS011;7976;52.526;13.326;2022-12-07T12:03:01;8.90;;;3.00;;
15748;SDS011;7976;52.526;13.326;2022-12-07T12:05:38;10.77;;;3.55;;
15748;SDS011;7976;52.526;13.326;2022-12-07T12:08:10;10.85;;;3.03;;
15748;SDS011;7976;52.526;13.326;2022-12-07T12:10:45;9.27;;;3.20;;
15748;SDS011;7976;52.526;13.326;2022-12-07T12:19:31;10.63;;;3.17;;
15748;SDS011;7976;52.526;13.326;2022-12-07T12:22:04;9.40;;;3.17;;
15748;SDS011;7976;52.526;13.326;2022-12-07T12:24:41;12.13;;;3.10;;
15748;SDS011;7976;52.526;13.326;2022-12-07T12:27:23;10.65;;;3.10;;
15748;SDS011;7976;52.526;13.326;2022-12-07T12:29:57;10.10;;;2.78;;
15748;SDS011;7976;52.526;13.326;2022-12-07T12:32:30;13.77;;;3.58;;
15748;SDS011;7976;52.526;13.326;2022-12-07T12:35:27;11.13;;;2.58;;
15748;SDS011;7976;52.526;13.326;2022-12-07T12:40:55;6.10;;;2.25;;
15748;SDS011;7976;52.526;13.326;2022-12-07T12:43:42;9.13;;;2.33;;
15748;SDS011;7976;52.526;13.326;2022-12-07T12:46:36;9.55;;;2.50;;
15748;SDS011;7976;52.526;13.326;2022-12-07T12:49:37;8.15;;;2.40;;
15748;SDS011;7976;52.526;13.326;2022-12-07T12:58:47;7.65;;;2.20;;
15748;SDS011;7976;52.526;13.326;2022-12-07T13:10:34;8.45;;;2.28;;
15748;SDS011;7976;52.526;13.326;2022-12-07T13:13:30;8.35;;;2.65;;
15748;SDS011;7976;52.526;13.326;2022-12-07T13:25:21;8.98;;;2.10;;
15748;SDS011;7976;52.526;13.326;2022-12-07T13:27:59;10.23;;;2.13;;
15748;SDS011;7976;52.526;13.326;2022-12-07T13:30:38;9.27;;;2.28;;
15748;SDS011;7976;52.526;13.326;2022-12-07T13:33:12;7.90;;;2.50;;
15748;SDS011;7976;52.526;13.326;2022-12-07T13:35:42;7.05;;;2.13;;
15748;SDS011;7976;52.526;13.326;2022-12-07T13:38:16;8.30;;;1.90;;
15748;SDS011;7976;52.526;13.326;2022-12-07T13:43:45;9.50;;;2.20;;
15748;SDS011;7976;52.526;13.326;2022-12-07T13:46:15;8.40;;;2.05;;
15748;SDS011;7976;52.526;13.326;2022-12-07T13:48:50;11.65;;;2.63;;
15748;SDS011;7976;52.526;13.326;2022-12-07T13:51:20;8.77;;;2.33;;
15748;SDS011;7976;52.526;13.326;2022-12-07T13:53:50;9.90;;;2.63;;
15748;SDS011;7976;52.526;13.326;2022-12-07T13:56:25;10.15;;;2.47;;
15748;SDS011;7976;52.526;13.326;2022-12-07T13:58:59;11.38;;;2.60;;
15748;SDS011;7976;52.526;13.326;2022-12-07T14:01:26;6.93;;;2.08;;
15748;SDS011;7976;52.526;13.326;2022-12-07T14:06:56;6.82;;;2.08;;
15748;SDS011;7976;52.526;13.326;2022-12-07T14:09:26;8.93;;;2.40;;
15748;SDS011;7976;52.526;13.326;2022-12-07T14:11:56;6.35;;;1.90;;
15748;SDS011;7976;52.526;13.326;2022-12-07T14:14:25;10.57;;;2.13;;
15748;SDS011;7976;52.526;13.326;2022-12-07T14:16:57;9.60;;;2.38;;
15748;SDS011;7976;52.526;13.326;2022-12-07T14:19:42;6.40;;;2.00;;
15748;SDS011;7976;52.526;13.326;2022-12-07T14:22:19;7.65;;;1.88;;
15748;SDS011;7976;52.526;13.326;2022-12-07T14:24:57;8.70;;;2.13;;
15748;SDS011;7976;52.526;13.326;2022-12-07T14:27:30;7.43;;;2.13;;
15748;SDS011;7976;52.526;13.326;2022-12-07T14:30:01;8.45;;;1.92;;
15748;SDS011;7976;52.526;13.326;2022-12-07T14:32:29;6.55;;;2.10;;
15748;SDS011;7976;52.526;13.326;2022-12-07T14:34:58;8.40;;;2.35;;
15748;SDS011;7976;52.526;13.326;2022-12-07T14:37:29;9.25;;;2.13;;
15748;SDS011;7976;52.526;13.326;2022-12-07T14:39:56;10.32;;;2.50;;
15748;SDS011;7976;52.526;13.326;2022-12-07T14:42:24;9.23;;;2.40;;
15748;SDS011;7976;52.526;13.326;2022-12-07T14:44:56;9.68;;;2.30;;
15748;SDS011;7976;52.526;13.326;2022-12-07T14:47:24;11.43;;;2.38;;
15748;SDS011;7976;52.526;13.326;2022-12-07T14:49:52;7.68;;;2.00;;
15748;SDS011;7976;52.526;13.326;2022-12-07T14:52:19;10.07;;;2.20;;
15748;SDS011;7976;52.526;13.326;2022-12-07T14:54:50;10.82;;;2.22;;
15748;SDS011;7976;52.526;13.326;2022-12-07T14:57:17;7.07;;;2.00;;
15748;SDS011;7976;52.526;13.326;2022-12-07T14:59:46;8.65;;;2.00;;
15748;SDS011;7976;52.526;13.326;2022-12-07T15:02:13;10.25;;;2.40;;
15748;SDS011;7976;52.526;13.326;2022-12-07T15:04:41;9.07;;;2.55;;
15748;SDS011;7976;52.526;13.326;2022-12-07T15:07:10;8.43;;;2.30;;
15748;SDS011;7976;52.526;13.326;2022-12-07T15:09:44;9.48;;;2.40;;
15748;SDS011;7976;52.526;13.326;2022-12-07T15:12:11;9.82;;;2.00;;
15748;SDS011;7976;52.526;13.326;2022-12-07T15:14:38;10.43;;;2.58;;
15748;SDS011;7976;52.526;13.326;2022-12-07T15:17:07;8.35;;;2.13;;
15748;SDS011;7976;52.526;13.326;2022-12-07T15:19:36;9.50;;;2.38;;
15748;SDS011;7976;52.526;13.326;2022-12-07T15:22:03;7.32;;;2.20;;
15748;SDS011;7976;52.526;13.326;2022-12-07T15:24:30;8.40;;;1.90;;
15748;SDS011;7976;52.526;13.326;2022-12-07T15:26:57;9.52;;;2.75;;
15748;SDS011;7976;52.526;13.326;2022-12-07T15:29:25;8.55;;;2.50;;
15748;SDS011;7976;52.526;13.326;2022-12-07T15:31:51;8.55;;;2.08;;
15748;SDS011;7976;52.526;13.326;2022-12-07T15:34:20;7.90;;;2.17;;
15748;SDS011;7976;52.526;13.326;2022-12-07T15:36:46;10.07;;;1.65;;
15748;SDS011;7976;52.526;13.326;2022-12-07T15:39:13;8.13;;;1.90;;
15748;SDS011;7976;52.526;13.326;2022-12-07T15:41:40;9.15;;;2.00;;
15748;SDS011;7976;52.526;13.326;2022-12-07T15:44:08;9.93;;;1.98;;